sensor_id;sensor_type;location;lat;lon;timestamp;pressure;altitude;pressure_sealevel;temperature;humidity
72896;BME280;61036;53.224;6.554;2023-10-08T00:01:31;102297.56;;;18.72;100.00
72896;BME280;61036;53.224;6.554;2023-10-08T00:03:58;102316.75;;;18.61;100.00
72896;BME280;61036;53.224;6.554;2023-10-08T00:06:26;102324.66;;;18.96;100.00
72896;BME280;61036;53.224;6.554;2023-10-08T00:08:52;102320.34;;;19.25;100.00
72896;BME280;61036;53.224;6.554;2023-10-08T00:11:25;102323.91;;;19.15;100.00
72896;BME280;61036;53.224;6.554;2023-10-08T00:13:51;102317.56;;;19.15;100.00
72896;BME280;61036;53.224;6.554;2023-10-08T00:16:21;102312.91;;;19.27;100.00
72896;BME280;61036;53.224;6.554;2023-10-08T00:18:47;102324.53;;;19.50;100.00
72896;BME280;61036;53.224;6.554;2023-10-08T00:21:20;102329.56;;;19.85;100.00
72896;BME280;61036;53.224;6.554;2023-10-08T00:23:53;102308.94;;;19.40;100.00
72896;BME280;61036;53.224;6.554;2023-10-08T00:26:26;102309.97;;;19.49;100.00
72896;BME280;61036;53.224;6.554;2023-10-08T00:28:56;102317.22;;;19.29;100.00
72896;BME280;61036;53.224;6.554;2023-10-08T00:31:24;102315.50;;;19.07;100.00
72896;BME280;61036;53.224;6.554;2023-10-08T00:33:56;102319.88;;;19.40;100.00
72896;BME280;61036;53.224;6.554;2023-10-08T00:36:22;102312.34;;;19.33;100.00
72896;BME280;61036;53.224;6.554;2023-10-08T00:38:50;102314.34;;;19.61;100.00
72896;BME280;61036;53.224;6.554;2023-10-08T00:41:19;102333.91;;;19.57;100.00
72896;BME280;61036;53.224;6.554;2023-10-08T00:43:50;102339.75;;;19.42;100.00
72896;BME280;61036;53.224;6.554;2023-10-08T00:46:17;102334.88;;;19.46;100.00
72896;BME280;61036;53.224;6.554;2023-10-08T00:48:52;102310.69;;;19.51;100.00
72896;BME280;61036;53.224;6.554;2023-10-08T00:51:25;102300.75;;;19.71;100.00
72896;BME280;61036;53.224;6.554;2023-10-08T00:54:06;102312.38;;;19.42;100.00
72896;BME280;61036;53.224;6.554;2023-10-08T00:56:35;102312.47;;;19.31;100.00
72896;BME280;61036;53.224;6.554;2023-10-08T00:59:33;102317.44;;;19.37;100.00
72896;BME280;61036;53.224;6.554;2023-10-08T01:02:09;102324.94;;;18.93;100.00
72896;BME280;61036;53.224;6.554;2023-10-08T01:04:40;102331.88;;;19.28;100.00
72896;BME280;61036;53.224;6.554;2023-10-08T01:07:05;102337.31;;;19.49;100.00
72896;BME280;61036;53.224;6.554;2023-10-08T01:09:44;102350.69;;;19.42;100.00
72896;BME280;61036;53.224;6.554;2023-10-08T01:12:23;102358.44;;;19.99;100.00
72896;BME280;61036;53.224;6.554;2023-10-08T01:14:48;102363.25;;;19.45;100.00
72896;BME280;61036;53.224;6.554;2023-10-08T01:17:22;102349.75;;;19.53;100.00
72896;BME280;61036;53.224;6.554;2023-10-08T01:19:52;102341.28;;;19.05;100.00
72896;BME280;61036;53.224;6.554;2023-10-08T01:22:53;102350.97;;;19.39;100.00
72896;BME280;61036;53.224;6.554;2023-10-08T01:25:18;102377.47;;;19.18;100.00
72896;BME280;61036;53.224;6.554;2023-10-08T01:27:58;102347.53;;;19.37;100.00
72896;BME280;61036;53.224;6.554;2023-10-08T01:30:34;102335.16;;;18.59;100.00
72896;BME280;61036;53.224;6.554;2023-10-08T01:33:06;102296.38;;;19.07;100.00
72896;BME280;61036;53.224;6.554;2023-10-08T01:35:36;102307.69;;;19.24;100.00
72896;BME280;61036;53.224;6.554;2023-10-08T01:38:02;102327.97;;;19.52;100.00
72896;BME280;61036;53.224;6.554;2023-10-08T01:40:29;102366.91;;;19.34;100.00
72896;BME280;61036;53.224;6.554;2023-10-08T01:42:56;102366.50;;;19.39;100.00
72896;BME280;61036;53.224;6.554;2023-10-08T01:45:30;102374.66;;;18.87;100.00
72896;BME280;61036;53.224;6.554;2023-10-08T01:47:57;102374.69;;;19.29;100.00
72896;BME280;61036;53.224;6.554;2023-10-08T01:50:22;102375.31;;;19.42;100.00
72896;BME280;61036;53.224;6.554;2023-10-08T01:52:51;102372.28;;;19.67;100.00
72896;BME280;61036;53.224;6.554;2023-10-08T01:55:17;102389.03;;;19.52;100.00
72896;BME280;61036;53.224;6.554;2023-10-08T01:57:47;102381.28;;;19.78;100.00
72896;BME280;61036;53.224;6.554;2023-10-08T02:00:13;102381.44;;;19.56;100.00
72896;BME280;61036;53.224;6.554;2023-10-08T02:02:50;102389.72;;;19.66;100.00
72896;BME280;61036;53.224;6.554;2023-10-08T02:05:16;102377.66;;;19.68;100.00
72896;BME280;61036;53.224;6.554;2023-10-08T02:07:45;102378.16;;;19.62;100.00
72896;BME280;61036;53.224;6.554;2023-10-08T02:10:11;102373.66;;;19.82;100.00
72896;BME280;61036;53.224;6.554;2023-10-08T02:12:40;102371.47;;;19.76;100.00
72896;BME280;61036;53.224;6.554;2023-10-08T02:15:07;102374.16;;;19.97;100.00
72896;BME280;61036;53.224;6.554;2023-10-08T02:17:33;102382.72;;;19.82;100.00
72896;BME280;61036;53.224;6.554;2023-10-08T02:19:59;102383.41;;;19.65;100.00
72896;BME280;61036;53.224;6.554;2023-10-08T02:22:25;102386.03;;;19.55;100.00
72896;BME280;61036;53.224;6.554;2023-10-08T02:24:51;102395.13;;;19.56;100.00
72896;BME280;61036;53.224;6.554;2023-10-08T02:27:18;102381.28;;;19.57;100.00
72896;BME280;61036;53.224;6.554;2023-10-08T02:29:44;102376.78;;;19.47;100.00
72896;BME280;61036;53.224;6.554;2023-10-08T02:32:10;102384.00;;;19.48;100.00
72896;BME280;61036;53.224;6.554;2023-10-08T02:34:36;102394.50;;;19.52;100.00
72896;BME280;61036;53.224;6.554;2023-10-08T02:37:01;102405.53;;;19.62;100.00
72896;BME280;61036;53.224;6.554;2023-10-08T02:39:29;102403.94;;;19.59;100.00
72896;BME280;61036;53.224;6.554;2023-10-08T02:41:56;102409.34;;;19.50;100.00
72896;BME280;61036;53.224;6.554;2023-10-08T02:44:25;102408.56;;;19.38;100.00
72896;BME280;61036;53.224;6.554;2023-10-08T02:46:51;102416.41;;;19.31;100.00
72896;BME280;61036;53.224;6.554;2023-10-08T02:49:21;102411.28;;;19.80;100.00
72896;BME280;61036;53.224;6.554;2023-10-08T02:51:49;102410.38;;;19.58;100.00
72896;BME280;61036;53.224;6.554;2023-10-08T02:54:19;102408.97;;;19.85;100.00
72896;BME280;61036;53.224;6.554;2023-10-08T02:56:51;102415.53;;;19.73;100.00
72896;BME280;61036;53.224;6.554;2023-10-08T02:59:18;102412.53;;;19.55;100.00
72896;BME280;61036;53.224;6.554;2023-10-08T03:01:47;102423.16;;;19.48;100.00
72896;BME280;61036;53.224;6.554;2023-10-08T03:04:15;102421.38;;;19.37;100.00
72896;BME280;61036;53.224;6.554;2023-10-08T03:06:45;102418.47;;;19.60;100.00
72896;BME280;61036;53.224;6.554;2023-10-08T03:09:19;102410.75;;;19.44;100.00
72896;BME280;61036;53.224;6.554;2023-10-08T03:11:48;102417.09;;;19.45;100.00
72896;BME280;61036;53.224;6.554;2023-10-08T03:14:16;102416.00;;;19.57;100.00
72896;BME280;61036;53.224;6.554;2023-10-08T03:16:51;102426.06;;;19.68;100.00
72896;BME280;61036;53.224;6.554;2023-10-08T03:19:18;102429.75;;;19.46;100.00
72896;BME280;61036;53.224;6.554;2023-10-08T03:21:47;102421.75;;;19.54;100.00
72896;BME280;61036;53.224;6.554;2023-10-08T03:24:17;102424.88;;;19.49;100.00
72896;BME280;61036;53.224;6.554;2023-10-08T03:26:58;102426.69;;;19.39;100.00
72896;BME280;61036;53.224;6.554;2023-10-08T03:29:48;102427.44;;;19.41;100.00
72896;BME280;61036;53.224;6.554;2023-10-08T03:32:15;102435.16;;;19.15;100.00
72896;BME280;61036;53.224;6.554;2023-10-08T03:34:48;102433.31;;;19.36;100.00
72896;BME280;61036;53.224;6.554;2023-10-08T03:37:16;102441.25;;;19.39;100.00
72896;BME280;61036;53.224;6.554;2023-10-08T03:39:49;102455.19;;;19.57;100.00
72896;BME280;61036;53.224;6.554;2023-10-08T03:42:33;102471.84;;;19.12;100.00
72896;BME280;61036;53.224;6.554;2023-10-08T03:45:00;102482.13;;;19.20;100.00
72896;BME280;61036;53.224;6.554;2023-10-08T03:47:39;102483.63;;;19.45;100.00
72896;BME280;61036;53.224;6.554;2023-10-08T03:50:11;102491.50;;;19.38;100.00
72896;BME280;61036;53.224;6.554;2023-10-08T03:52:43;102495.88;;;19.30;100.00
72896;BME280;61036;53.224;6.554;2023-10-08T03:55:09;102499.97;;;19.35;100.00
72896;BME280;61036;53.224;6.554;2023-10-08T03:57:44;102501.50;;;19.49;100.00
72896;BME280;61036;53.224;6.554;2023-10-08T04:00:13;102514.00;;;19.63;100.00
72896;BME280;61036;53.224;6.554;2023-10-08T04:02:45;102505.69;;;19.64;100.00
72896;BME280;61036;53.224;6.554;2023-10-08T04:05:35;102512.59;;;19.48;100.00
72896;BME280;61036;53.224;6.554;2023-10-08T04:08:27;102521.63;;;19.27;100.00
72896;BME280;61036;53.224;6.554;2023-10-08T04:11:23;102525.53;;;19.46;100.00
72896;BME280;61036;53.224;6.554;2023-10-08T04:14:02;102532.38;;;19.40;100.00
72896;BME280;61036;53.224;6.554;2023-10-08T04:16:28;102547.56;;;19.44;100.00
72896;BME280;61036;53.224;6.554;2023-10-08T04:18:55;102550.94;;;19.36;100.00
72896;BME280;61036;53.224;6.554;2023-10-08T04:21:28;102541.91;;;19.25;100.00
72896;BME280;61036;53.224;6.554;2023-10-08T04:23:54;102525.97;;;19.30;100.00
72896;BME280;61036;53.224;6.554;2023-10-08T04:26:23;102508.69;;;18.97;100.00
72896;BME280;61036;53.224;6.554;2023-10-08T04:28:56;102519.88;;;19.37;100.00
72896;BME280;61036;53.224;6.554;2023-10-08T04:31:28;102541.06;;;19.13;100.00
72896;BME280;61036;53.224;6.554;2023-10-08T04:34:07;102547.66;;;19.42;100.00
72896;BME280;61036;53.224;6.554;2023-10-08T04:36:44;102544.28;;;19.50;100.00
72896;BME280;61036;53.224;6.554;2023-10-08T04:39:20;102556.19;;;19.28;100.00
72896;BME280;61036;53.224;6.554;2023-10-08T04:41:52;102547.44;;;19.34;100.00
72896;BME280;61036;53.224;6.554;2023-10-08T04:44:24;102556.66;;;19.33;100.00
72896;BME280;61036;53.224;6.554;2023-10-08T04:46:51;102552.22;;;19.32;100.00
72896;BME280;61036;53.224;6.554;2023-10-08T04:49:19;102558.66;;;19.31;100.00
72896;BME280;61036;53.224;6.554;2023-10-08T04:51:59;102565.94;;;19.53;100.00
72896;BME280;61036;53.224;6.554;2023-10-08T04:54:26;102576.16;;;19.40;100.00
72896;BME280;61036;53.224;6.554;2023-10-08T04:57:07;102563.41;;;19.29;100.00
72896;BME280;61036;53.224;6.554;2023-10-08T04:59:43;102547.81;;;19.41;100.00
72896;BME280;61036;53.224;6.554;2023-10-08T05:02:09;102533.25;;;19.19;100.00
72896;BME280;61036;53.224;6.554;2023-10-08T05:04:48;102533.03;;;19.44;100.00
72896;BME280;61036;53.224;6.554;2023-10-08T05:07:32;102527.78;;;19.19;100.00
72896;BME280;61036;53.224;6.554;2023-10-08T05:10:15;102516.19;;;19.48;100.00
72896;BME280;61036;53.224;6.554;2023-10-08T05:12:50;102517.22;;;19.15;100.00
72896;BME280;61036;53.224;6.554;2023-10-08T05:15:27;102526.19;;;19.06;100.00
72896;BME280;61036;53.224;6.554;2023-10-08T05:18:07;102528.28;;;19.13;100.00
72896;BME280;61036;53.224;6.554;2023-10-08T05:20:48;102532.66;;;19.05;100.00
72896;BME280;61036;53.224;6.554;2023-10-08T05:23:14;102530.53;;;19.08;100.00
72896;BME280;61036;53.224;6.554;2023-10-08T05:25:53;102523.69;;;19.14;100.00
72896;BME280;61036;53.224;6.554;2023-10-08T05:28:27;102512.03;;;19.01;100.00
72896;BME280;61036;53.224;6.554;2023-10-08T05:30:55;102518.03;;;18.94;100.00
72896;BME280;61036;53.224;6.554;2023-10-08T05:33:30;102532.03;;;19.01;100.00
72896;BME280;61036;53.224;6.554;2023-10-08T05:36:16;102528.09;;;18.94;100.00
72896;BME280;61036;53.224;6.554;2023-10-08T05:38:53;102512.94;;;19.22;100.00
72896;BME280;61036;53.224;6.554;2023-10-08T05:41:29;102541.19;;;19.23;100.00
72896;BME280;61036;53.224;6.554;2023-10-08T05:44:05;102541.84;;;19.04;100.00
72896;BME280;61036;53.224;6.554;2023-10-08T05:46:40;102553.97;;;18.90;100.00
72896;BME280;61036;53.224;6.554;2023-10-08T05:49:26;102559.44;;;18.79;100.00
72896;BME280;61036;53.224;6.554;2023-10-08T05:52:04;102561.31;;;18.78;100.00
72896;BME280;61036;53.224;6.554;2023-10-08T05:54:31;102562.00;;;18.91;100.00
72896;BME280;61036;53.224;6.554;2023-10-08T05:59:43;102534.06;;;18.99;100.00
72896;BME280;61036;53.224;6.554;2023-10-08T06:02:24;102550.22;;;18.80;100.00
72896;BME280;61036;53.224;6.554;2023-10-08T06:05:10;102558.25;;;19.04;100.00
72896;BME280;61036;53.224;6.554;2023-10-08T06:07:42;102571.72;;;18.95;100.00
72896;BME280;61036;53.224;6.554;2023-10-08T06:13:11;102547.38;;;19.25;100.00
72896;BME280;61036;53.224;6.554;2023-10-08T06:15:56;102550.31;;;19.01;100.00
72896;BME280;61036;53.224;6.554;2023-10-08T06:18:29;102558.25;;;19.04;100.00
72896;BME280;61036;53.224;6.554;2023-10-08T06:20:56;102575.56;;;18.93;100.00
72896;BME280;61036;53.224;6.554;2023-10-08T06:23:25;102558.69;;;18.88;100.00
72896;BME280;61036;53.224;6.554;2023-10-08T06:25:52;102579.94;;;18.95;100.00
72896;BME280;61036;53.224;6.554;2023-10-08T06:28:38;102593.09;;;19.02;100.00
72896;BME280;61036;53.224;6.554;2023-10-08T06:31:05;102598.66;;;19.00;100.00
72896;BME280;61036;53.224;6.554;2023-10-08T06:33:37;102609.34;;;19.03;100.00
72896;BME280;61036;53.224;6.554;2023-10-08T06:36:04;102603.88;;;19.03;100.00
72896;BME280;61036;53.224;6.554;2023-10-08T06:38:45;102591.28;;;19.23;100.00
72896;BME280;61036;53.224;6.554;2023-10-08T06:41:14;102586.34;;;19.06;100.00
72896;BME280;61036;53.224;6.554;2023-10-08T06:43:48;102598.16;;;19.50;100.00
72896;BME280;61036;53.224;6.554;2023-10-08T06:46:31;102603.31;;;19.32;100.00
72896;BME280;61036;53.224;6.554;2023-10-08T06:49:02;102613.69;;;19.49;100.00
72896;BME280;61036;53.224;6.554;2023-10-08T06:51:28;102605.72;;;19.14;100.00
72896;BME280;61036;53.224;6.554;2023-10-08T06:53:56;102595.41;;;19.17;100.00
72896;BME280;61036;53.224;6.554;2023-10-08T06:56:25;102607.19;;;19.18;100.00
72896;BME280;61036;53.224;6.554;2023-10-08T06:58:50;102602.75;;;19.17;100.00
72896;BME280;61036;53.224;6.554;2023-10-08T07:01:19;102593.94;;;19.46;100.00
72896;BME280;61036;53.224;6.554;2023-10-08T07:03:54;102587.00;;;19.74;100.00
72896;BME280;61036;53.224;6.554;2023-10-08T07:06:28;102608.13;;;19.39;100.00
72896;BME280;61036;53.224;6.554;2023-10-08T07:08:58;102615.50;;;19.71;100.00
72896;BME280;61036;53.224;6.554;2023-10-08T07:11:25;102617.50;;;19.69;100.00
72896;BME280;61036;53.224;6.554;2023-10-08T07:13:54;102613.03;;;19.57;100.00
72896;BME280;61036;53.224;6.554;2023-10-08T07:16:21;102608.38;;;19.80;100.00
72896;BME280;61036;53.224;6.554;2023-10-08T07:18:47;102645.66;;;19.92;100.00
72896;BME280;61036;53.224;6.554;2023-10-08T07:21:20;102658.38;;;19.82;100.00
72896;BME280;61036;53.224;6.554;2023-10-08T07:24:04;102655.38;;;20.06;100.00
72896;BME280;61036;53.224;6.554;2023-10-08T07:26:35;102675.13;;;19.88;100.00
72896;BME280;61036;53.224;6.554;2023-10-08T07:29:06;102672.03;;;19.93;100.00
72896;BME280;61036;53.224;6.554;2023-10-08T07:31:36;102662.22;;;20.12;100.00
72896;BME280;61036;53.224;6.554;2023-10-08T07:34:03;102665.75;;;20.02;100.00
72896;BME280;61036;53.224;6.554;2023-10-08T07:36:46;102648.94;;;20.07;100.00
72896;BME280;61036;53.224;6.554;2023-10-08T07:39:16;102653.72;;;19.94;100.00
72896;BME280;61036;53.224;6.554;2023-10-08T07:41:52;102695.00;;;20.02;100.00
72896;BME280;61036;53.224;6.554;2023-10-08T07:44:22;102710.00;;;19.86;100.00
72896;BME280;61036;53.224;6.554;2023-10-08T07:46:49;102699.88;;;19.98;100.00
72896;BME280;61036;53.224;6.554;2023-10-08T07:49:16;102668.38;;;19.60;100.00
72896;BME280;61036;53.224;6.554;2023-10-08T07:51:42;102658.53;;;19.80;100.00
72896;BME280;61036;53.224;6.554;2023-10-08T07:54:21;102632.28;;;20.20;100.00
72896;BME280;61036;53.224;6.554;2023-10-08T07:56:51;102625.84;;;20.09;100.00
72896;BME280;61036;53.224;6.554;2023-10-08T07:59:17;102616.31;;;19.83;100.00
72896;BME280;61036;53.224;6.554;2023-10-08T08:01:43;102594.00;;;19.87;100.00
72896;BME280;61036;53.224;6.554;2023-10-08T08:04:12;102587.88;;;20.47;100.00
72896;BME280;61036;53.224;6.554;2023-10-08T08:06:51;102588.75;;;20.78;100.00
72896;BME280;61036;53.224;6.554;2023-10-08T08:09:18;102578.63;;;20.78;100.00
72896;BME280;61036;53.224;6.554;2023-10-08T08:11:46;102586.50;;;20.52;100.00
72896;BME280;61036;53.224;6.554;2023-10-08T08:14:13;102596.34;;;20.65;100.00
72896;BME280;61036;53.224;6.554;2023-10-08T08:16:44;102611.91;;;20.95;100.00
72896;BME280;61036;53.224;6.554;2023-10-08T08:19:14;102632.81;;;20.96;100.00
72896;BME280;61036;53.224;6.554;2023-10-08T08:21:42;102674.44;;;20.49;100.00
72896;BME280;61036;53.224;6.554;2023-10-08T08:24:13;102684.38;;;20.71;100.00
72896;BME280;61036;53.224;6.554;2023-10-08T08:26:41;102718.56;;;20.67;100.00
72896;BME280;61036;53.224;6.554;2023-10-08T08:29:29;102732.78;;;21.13;100.00
72896;BME280;61036;53.224;6.554;2023-10-08T08:31:55;102723.84;;;20.80;100.00
72896;BME280;61036;53.224;6.554;2023-10-08T08:34:23;102744.25;;;21.28;100.00
72896;BME280;61036;53.224;6.554;2023-10-08T08:36:49;102769.44;;;20.81;100.00
72896;BME280;61036;53.224;6.554;2023-10-08T08:39:16;102760.88;;;20.95;100.00
72896;BME280;61036;53.224;6.554;2023-10-08T08:42:03;102767.63;;;21.22;100.00
72896;BME280;61036;53.224;6.554;2023-10-08T08:44:35;102756.06;;;21.49;100.00
72896;BME280;61036;53.224;6.554;2023-10-08T08:47:05;102745.06;;;20.88;100.00
72896;BME280;61036;53.224;6.554;2023-10-08T08:49:36;102731.72;;;21.35;100.00
72896;BME280;61036;53.224;6.554;2023-10-08T08:52:04;102732.00;;;21.32;100.00
72896;BME280;61036;53.224;6.554;2023-10-08T08:54:30;102741.69;;;21.36;100.00
72896;BME280;61036;53.224;6.554;2023-10-08T08:56:57;102746.91;;;21.39;100.00
72896;BME280;61036;53.224;6.554;2023-10-08T08:59:27;102743.88;;;21.42;100.00
72896;BME280;61036;53.224;6.554;2023-10-08T09:01:57;102744.81;;;21.52;100.00
72896;BME280;61036;53.224;6.554;2023-10-08T09:04:31;102740.44;;;21.50;100.00
72896;BME280;61036;53.224;6.554;2023-10-08T09:07:01;102738.75;;;21.78;100.00
72896;BME280;61036;53.224;6.554;2023-10-08T09:09:33;102739.06;;;21.75;100.00
72896;BME280;61036;53.224;6.554;2023-10-08T09:11:59;102738.31;;;21.63;100.00
72896;BME280;61036;53.224;6.554;2023-10-08T09:14:26;102724.50;;;21.34;100.00
72896;BME280;61036;53.224;6.554;2023-10-08T09:16:53;102713.00;;;21.59;100.00
72896;BME280;61036;53.224;6.554;2023-10-08T09:19:21;102702.34;;;21.76;100.00
72896;BME280;61036;53.224;6.554;2023-10-08T09:24:25;102721.88;;;21.73;100.00
72896;BME280;61036;53.224;6.554;2023-10-08T09:26:52;102740.19;;;21.62;100.00
72896;BME280;61036;53.224;6.554;2023-10-08T09:29:18;102741.09;;;21.32;100.00
72896;BME280;61036;53.224;6.554;2023-10-08T09:31:56;102729.28;;;22.21;100.00
72896;BME280;61036;53.224;6.554;2023-10-08T09:34:26;102714.94;;;22.36;100.00
72896;BME280;61036;53.224;6.554;2023-10-08T09:36:52;102718.69;;;22.45;100.00
72896;BME280;61036;53.224;6.554;2023-10-08T09:39:19;102719.31;;;22.29;100.00
72896;BME280;61036;53.224;6.554;2023-10-08T09:41:50;102719.81;;;21.55;100.00
72896;BME280;61036;53.224;6.554;2023-10-08T09:44:18;102724.50;;;22.23;100.00
72896;BME280;61036;53.224;6.554;2023-10-08T09:46:47;102722.31;;;22.46;100.00
72896;BME280;61036;53.224;6.554;2023-10-08T09:49:16;102727.09;;;22.34;99.91
72896;BME280;61036;53.224;6.554;2023-10-08T09:51:44;102721.00;;;22.50;100.00
72896;BME280;61036;53.224;6.554;2023-10-08T09:54:31;102725.09;;;22.17;98.20
72896;BME280;61036;53.224;6.554;2023-10-08T09:57:04;102726.03;;;21.27;100.00
72896;BME280;61036;53.224;6.554;2023-10-08T09:59:33;102721.34;;;22.18;97.15
72896;BME280;61036;53.224;6.554;2023-10-08T10:02:00;102736.78;;;22.38;98.40
72896;BME280;61036;53.224;6.554;2023-10-08T10:04:26;102729.41;;;22.48;99.43
72896;BME280;61036;53.224;6.554;2023-10-08T10:06:55;102735.22;;;22.35;95.19
72896;BME280;61036;53.224;6.554;2023-10-08T10:09:24;102738.78;;;22.07;92.42
72896;BME280;61036;53.224;6.554;2023-10-08T10:11:50;102749.78;;;22.07;93.29
72896;BME280;61036;53.224;6.554;2023-10-08T10:14:18;102753.41;;;22.46;97.85
72896;BME280;61036;53.224;6.554;2023-10-08T10:17:13;102748.56;;;22.87;97.61
72896;BME280;61036;53.224;6.554;2023-10-08T10:19:40;102753.00;;;22.22;97.51
72896;BME280;61036;53.224;6.554;2023-10-08T10:22:13;102755.03;;;22.29;93.51
72896;BME280;61036;53.224;6.554;2023-10-08T10:24:41;102762.56;;;22.27;91.72
72896;BME280;61036;53.224;6.554;2023-10-08T10:27:12;102754.81;;;22.70;87.55
72896;BME280;61036;53.224;6.554;2023-10-08T10:29:41;102745.97;;;20.88;91.74
72896;BME280;61036;53.224;6.554;2023-10-08T10:32:10;102738.47;;;21.21;99.30
72896;BME280;61036;53.224;6.554;2023-10-08T10:34:39;102734.56;;;21.64;93.57
72896;BME280;61036;53.224;6.554;2023-10-08T10:37:04;102729.53;;;21.88;94.39
72896;BME280;61036;53.224;6.554;2023-10-08T10:39:57;102734.88;;;22.58;95.00
72896;BME280;61036;53.224;6.554;2023-10-08T10:42:26;102736.94;;;22.36;95.53
72896;BME280;61036;53.224;6.554;2023-10-08T10:44:54;102745.44;;;22.04;94.01
72896;BME280;61036;53.224;6.554;2023-10-08T10:47:21;102738.09;;;22.34;98.26
72896;BME280;61036;53.224;6.554;2023-10-08T10:49:48;102717.56;;;21.99;93.03
72896;BME280;61036;53.224;6.554;2023-10-08T10:52:25;102699.47;;;22.45;92.87
72896;BME280;61036;53.224;6.554;2023-10-08T10:55:04;102698.91;;;22.42;90.30
72896;BME280;61036;53.224;6.554;2023-10-08T10:57:53;102700.25;;;21.39;94.11
72896;BME280;61036;53.224;6.554;2023-10-08T11:00:26;102679.25;;;21.88;95.18
72896;BME280;61036;53.224;6.554;2023-10-08T11:03:14;102658.84;;;21.81;98.51
72896;BME280;61036;53.224;6.554;2023-10-08T11:05:47;102631.97;;;21.45;99.28
72896;BME280;61036;53.224;6.554;2023-10-08T11:08:17;102626.03;;;21.40;97.99
72896;BME280;61036;53.224;6.554;2023-10-08T11:10:44;102634.31;;;21.19;97.34
72896;BME280;61036;53.224;6.554;2023-10-08T11:13:17;102657.22;;;21.39;97.39
72896;BME280;61036;53.224;6.554;2023-10-08T11:15:45;102665.47;;;21.39;100.00
72896;BME280;61036;53.224;6.554;2023-10-08T11:18:16;102669.66;;;22.31;100.00
72896;BME280;61036;53.224;6.554;2023-10-08T11:20:43;102672.53;;;21.01;96.19
72896;BME280;61036;53.224;6.554;2023-10-08T11:23:35;102671.25;;;22.14;96.68
72896;BME280;61036;53.224;6.554;2023-10-08T11:26:03;102674.88;;;21.56;100.00
72896;BME280;61036;53.224;6.554;2023-10-08T11:28:37;102674.81;;;20.45;100.00
72896;BME280;61036;53.224;6.554;2023-10-08T11:31:12;102663.47;;;21.80;99.96
72896;BME280;61036;53.224;6.554;2023-10-08T11:33:40;102659.22;;;22.44;96.96
72896;BME280;61036;53.224;6.554;2023-10-08T11:36:07;102654.47;;;22.36;97.22
72896;BME280;61036;53.224;6.554;2023-10-08T11:38:51;102668.81;;;21.91;97.37
72896;BME280;61036;53.224;6.554;2023-10-08T11:41:19;102660.13;;;22.25;96.37
72896;BME280;61036;53.224;6.554;2023-10-08T11:43:51;102656.06;;;22.39;96.25
72896;BME280;61036;53.224;6.554;2023-10-08T11:46:26;102650.78;;;21.19;98.74
72896;BME280;61036;53.224;6.554;2023-10-08T11:48:54;102647.00;;;21.11;99.72
72896;BME280;61036;53.224;6.554;2023-10-08T11:51:24;102650.16;;;22.14;97.60
72896;BME280;61036;53.224;6.554;2023-10-08T11:53:50;102646.84;;;22.21;99.09
72896;BME280;61036;53.224;6.554;2023-10-08T11:56:17;102638.72;;;21.90;95.41
72896;BME280;61036;53.224;6.554;2023-10-08T11:58:47;102644.00;;;21.14;99.91
72896;BME280;61036;53.224;6.554;2023-10-08T12:01:13;102649.88;;;20.69;98.76
72896;BME280;61036;53.224;6.554;2023-10-08T12:03:42;102645.97;;;21.91;95.83
72896;BME280;61036;53.224;6.554;2023-10-08T12:06:12;102641.59;;;22.74;95.22
72896;BME280;61036;53.224;6.554;2023-10-08T12:08:42;102642.06;;;22.23;92.75
72896;BME280;61036;53.224;6.554;2023-10-08T12:11:10;102659.00;;;22.65;89.79
72896;BME280;61036;53.224;6.554;2023-10-08T12:13:42;102651.63;;;22.19;92.80
72896;BME280;61036;53.224;6.554;2023-10-08T12:16:12;102654.97;;;21.14;94.71
72896;BME280;61036;53.224;6.554;2023-10-08T12:18:46;102656.25;;;22.08;92.83
72896;BME280;61036;53.224;6.554;2023-10-08T12:21:21;102666.72;;;21.35;98.22
72896;BME280;61036;53.224;6.554;2023-10-08T12:23:47;102670.69;;;21.62;94.01
72896;BME280;61036;53.224;6.554;2023-10-08T12:26:13;102656.97;;;21.12;98.72
72896;BME280;61036;53.224;6.554;2023-10-08T12:28:43;102660.19;;;22.53;91.33
72896;BME280;61036;53.224;6.554;2023-10-08T12:31:14;102664.34;;;21.90;94.54
72896;BME280;61036;53.224;6.554;2023-10-08T12:33:41;102667.66;;;21.75;95.39
72896;BME280;61036;53.224;6.554;2023-10-08T12:36:09;102656.16;;;22.57;92.59
72896;BME280;61036;53.224;6.554;2023-10-08T12:38:42;102668.16;;;22.56;91.58
72896;BME280;61036;53.224;6.554;2023-10-08T12:41:09;102658.56;;;22.70;90.63
72896;BME280;61036;53.224;6.554;2023-10-08T12:43:40;102666.13;;;21.32;92.29
72896;BME280;61036;53.224;6.554;2023-10-08T12:46:08;102667.38;;;21.68;92.75
72896;BME280;61036;53.224;6.554;2023-10-08T12:48:41;102668.38;;;21.86;92.46
72896;BME280;61036;53.224;6.554;2023-10-08T12:51:09;102652.88;;;21.37;92.96
72896;BME280;61036;53.224;6.554;2023-10-08T12:53:36;102648.16;;;21.97;93.00
72896;BME280;61036;53.224;6.554;2023-10-08T12:56:06;102634.16;;;22.57;92.87
72896;BME280;61036;53.224;6.554;2023-10-08T12:58:35;102635.00;;;21.81;93.69
72896;BME280;61036;53.224;6.554;2023-10-08T13:01:07;102626.78;;;22.57;91.72
72896;BME280;61036;53.224;6.554;2023-10-08T13:03:36;102627.22;;;22.53;91.38
72896;BME280;61036;53.224;6.554;2023-10-08T13:06:09;102637.00;;;22.75;92.98
72896;BME280;61036;53.224;6.554;2023-10-08T13:08:40;102646.69;;;22.03;93.79
72896;BME280;61036;53.224;6.554;2023-10-08T13:11:06;102646.84;;;22.01;95.92
72896;BME280;61036;53.224;6.554;2023-10-08T13:13:33;102635.97;;;22.39;93.34